Terminal Aerodrome Forecast
Issued by NWS Portland, OR

Home | Current Version | Previous Version | Text Only | Print | Product List | Glossary On
Versions: 1 2 3 4 5 6 7 8 9 10 11 12 13 14 15 16 17 18 19 20 21 22 23 24 25 26
000
FTUS46 KPQR 200259 AAA
TAFPDX
TAF AMD
KPDX 200259Z 2003/2024 25006KT P6SM SCT050
     FM201000 16004KT P6SM FEW150
     FM201400 VRB03KT P6SM SCT015
     FM202000 17007KT P6SM BKN250=

USA.gov is the U.S. government's official web portal to all federal, state and local government web resources and services.